Time;durP1;ratioP1;P1;durP2;ratioP2;P2;SDS_P1;SDS_P2;PMS_P1;PMS_P2;Temp;Humidity;BMP_temperature;BMP_pressure;BME280_temperature;BME280_humidity;BME280_pressure;Samples;Min_cycle;Max_cycle;Signal;HPM_P1;HPM_P2
2022/11/04 00:00:48;;;;;;;18.55;12.02;;;11.60;99.90;;;;;;4991247;28;20384;-89
2022/11/04 00:03:13;;;;;;;17.90;12.50;;;11.60;99.90;;;;;;5008620;28;20053;-86
2022/11/04 00:05:39;;;;;;;18.00;12.85;;;11.60;99.90;;;;;;4975602;28;20042;-86
2022/11/04 00:08:23;;;;;;;17.42;11.73;;;11.60;99.90;;;;;;4991222;28;20564;-86
2022/11/04 00:13:44;;;;;;;17.67;12.35;;;11.60;99.90;;;;;;4986300;28;20529;-87
2022/11/04 00:18:55;;;;;;;18.70;13.00;;;11.60;99.90;;;;;;5010002;28;20679;-86
2022/11/04 00:29:35;;;;;;;17.30;10.60;;;11.60;99.90;;;;;;5007191;28;20303;-86
2022/11/04 00:34:45;;;;;;;17.13;10.63;;;11.70;99.90;;;;;;5004132;28;20057;-86
2022/11/04 00:37:11;;;;;;;21.00;10.45;;;11.60;99.90;;;;;;4964675;28;20026;-86
2022/11/04 00:39:36;;;;;;;14.60;9.88;;;11.60;99.90;;;;;;4988755;28;20155;-86
2022/11/04 00:42:02;;;;;;;15.88;10.27;;;11.60;99.90;;;;;;4972730;28;20101;-87
2022/11/04 00:44:28;;;;;;;16.23;9.93;;;11.60;99.90;;;;;;4975806;28;20092;-86
2022/11/04 00:46:53;;;;;;;14.13;9.73;;;11.60;99.90;;;;;;4991473;28;20034;-87
2022/11/04 00:49:19;;;;;;;14.93;9.15;;;11.60;99.90;;;;;;4968569;28;20029;-88
2022/11/04 00:51:45;;;;;;;12.15;7.15;;;11.50;99.90;;;;;;4971495;28;20573;-88
2022/11/04 00:54:10;;;;;;;12.70;8.15;;;11.50;99.90;;;;;;4990670;28;20052;-87
2022/11/04 00:56:37;;;;;;;9.73;4.93;;;11.50;99.90;;;;;;4972660;28;20140;-87
2022/11/04 00:59:03;;;;;;;9.20;4.65;;;11.40;99.90;;;;;;4986463;28;20034;-87
2022/11/04 01:01:29;;;;;;;9.43;4.10;;;11.50;99.90;;;;;;4963022;28;20556;-87
2022/11/04 01:03:55;;;;;;;9.60;3.90;;;11.40;99.90;;;;;;4988616;28;20046;-87
2022/11/04 01:06:23;;;;;;;8.52;3.25;;;11.30;99.90;;;;;;5006269;28;20052;-86
2022/11/04 01:08:54;;;;;;;7.32;2.80;;;11.30;99.90;;;;;;4975679;28;20046;-87
2022/11/04 01:11:19;;;;;;;8.52;3.00;;;11.30;99.90;;;;;;4986555;28;20092;-87
2022/11/04 01:13:45;;;;;;;7.60;2.55;;;11.20;99.90;;;;;;4974267;28;20049;-87
2022/11/04 01:16:11;;;;;;;5.88;2.17;;;11.20;99.90;;;;;;4979968;28;20036;-86
2022/11/04 01:18:38;;;;;;;5.13;2.00;;;11.20;99.90;;;;;;4973832;28;20116;-88
2022/11/04 01:21:06;;;;;;;5.57;2.00;;;11.10;99.90;;;;;;4983700;28;20072;-88
2022/11/04 01:23:34;;;;;;;6.90;1.90;;;11.10;99.90;;;;;;4990727;28;20085;-88
2022/11/04 01:25:59;;;;;;;5.05;1.65;;;11.10;99.90;;;;;;4980199;28;20041;-88
2022/11/04 01:28:25;;;;;;;4.00;1.52;;;11.00;99.90;;;;;;4996011;28;20073;-88
2022/11/04 01:30:51;;;;;;;8.38;1.60;;;11.10;99.90;;;;;;4971556;28;20491;-88
2022/11/04 01:33:16;;;;;;;3.70;1.40;;;11.00;99.90;;;;;;4976285;28;20037;-88
2022/11/04 01:35:42;;;;;;;5.28;1.50;;;11.00;99.90;;;;;;4993867;28;20043;-88
2022/11/04 01:38:08;;;;;;;5.60;1.55;;;11.00;99.90;;;;;;4951246;28;20041;-88
2022/11/04 01:40:38;;;;;;;2.97;1.17;;;11.00;99.90;;;;;;4975192;28;20138;-88
2022/11/04 01:43:14;;;;;;;4.53;1.30;;;11.00;99.90;;;;;;4976273;28;20042;-88
2022/11/04 01:45:43;;;;;;;4.10;1.42;;;11.00;99.90;;;;;;5007145;28;20046;-87
2022/11/04 01:48:25;;;;;;;2.47;1.10;;;11.30;99.90;;;;;;4991374;28;20125;-87
2022/11/04 01:50:52;;;;;;;3.88;1.25;;;10.90;99.90;;;;;;4988344;28;20138;-88
2022/11/04 01:53:22;;;;;;;5.38;1.10;;;11.00;99.90;;;;;;4989571;28;20119;-88
2022/11/04 01:55:53;;;;;;;2.72;1.23;;;11.00;99.90;;;;;;4985351;28;20045;-87
2022/11/04 01:58:22;;;;;;;5.90;1.50;;;11.00;99.90;;;;;;4989913;28;20549;-88
2022/11/04 02:00:48;;;;;;;3.28;1.20;;;11.40;99.90;;;;;;4991106;28;20038;-88
2022/11/04 02:03:22;;;;;;;3.95;1.33;;;11.00;99.90;;;;;;4988686;28;20104;-88
2022/11/04 02:05:47;;;;;;;3.45;1.13;;;10.90;99.90;;;;;;4983552;28;20073;-88
2022/11/04 02:08:15;;;;;;;4.07;1.20;;;10.90;99.90;;;;;;4982244;28;20490;-87
2022/11/04 02:10:47;;;;;;;4.28;1.30;;;11.00;99.90;;;;;;4994147;28;20037;-88
2022/11/04 02:13:13;;;;;;;3.45;1.10;;;10.90;99.90;;;;;;4989942;28;20514;-88
2022/11/04 02:16:02;;;;;;;3.83;1.10;;;11.00;99.90;;;;;;4974291;28;20069;-87
2022/11/04 02:18:40;;;;;;;7.57;1.50;;;11.00;99.90;;;;;;4990939;28;20034;-87
2022/11/04 02:21:23;;;;;;;8.00;1.40;;;10.90;99.90;;;;;;4987849;28;20108;-88
2022/11/04 02:24:05;;;;;;;3.38;1.30;;;10.90;99.90;;;;;;4988428;28;20037;-88
2022/11/04 02:26:49;;;;;;;5.63;1.58;;;10.90;99.90;;;;;;4991272;28;20121;-88
2022/11/04 02:29:26;;;;;;;8.18;1.30;;;10.90;99.90;;;;;;5006781;28;20054;-88
2022/11/04 02:32:28;;;;;;;5.47;1.17;;;10.90;99.90;;;;;;4989426;28;20499;-88
2022/11/04 02:35:28;;;;;;;5.65;1.15;;;10.90;99.90;;;;;;4988246;28;20467;-88
2022/11/04 02:38:13;;;;;;;3.92;1.25;;;10.90;99.90;;;;;;4991254;28;20073;-88
2022/11/04 02:41:10;;;;;;;7.68;1.60;;;10.90;99.90;;;;;;4990238;28;20057;-87
2022/11/04 02:43:44;;;;;;;5.60;1.20;;;10.90;99.90;;;;;;4989773;28;20053;-88
2022/11/04 02:46:23;;;;;;;7.50;1.42;;;10.80;99.90;;;;;;4989550;28;20045;-88
2022/11/04 02:48:58;;;;;;;5.45;1.10;;;10.80;99.90;;;;;;5003405;28;20041;-87
2022/11/04 02:51:30;;;;;;;8.45;1.30;;;10.80;99.90;;;;;;4990006;28;20494;-88
2022/11/04 02:53:58;;;;;;;8.32;1.38;;;10.80;99.90;;;;;;4990533;28;20625;-88
2022/11/04 02:56:27;;;;;;;5.82;1.40;;;10.80;99.90;;;;;;5006891;28;20061;-87
2022/11/04 02:59:05;;;;;;;7.00;1.70;;;10.80;99.90;;;;;;4995160;28;20113;-87
2022/11/04 03:01:35;;;;;;;9.57;1.63;;;10.80;99.90;;;;;;4989648;28;20606;-86
2022/11/04 03:04:13;;;;;;;12.10;1.45;;;10.80;99.90;;;;;;5005605;28;20141;-88
2022/11/04 03:06:41;;;;;;;8.48;1.50;;;10.70;99.90;;;;;;5006800;28;20491;-88
2022/11/04 03:09:09;;;;;;;7.53;1.45;;;10.70;99.90;;;;;;4993643;28;20045;-87
2022/11/04 03:11:37;;;;;;;6.60;1.35;;;10.70;99.90;;;;;;5004204;28;20042;-88
2022/11/04 03:14:14;;;;;;;10.95;1.60;;;10.70;99.90;;;;;;4990851;28;20053;-87
2022/11/04 03:16:49;;;;;;;9.20;1.48;;;10.70;99.90;;;;;;5008672;28;20045;-88
2022/11/04 03:19:38;;;;;;;6.68;1.20;;;10.70;99.90;;;;;;4988599;28;20119;-88
2022/11/04 03:22:10;;;;;;;5.68;1.30;;;10.70;99.90;;;;;;4993513;28;20081;-88
2022/11/04 03:24:37;;;;;;;8.67;1.70;;;10.70;99.90;;;;;;4992644;28;20038;-88
2022/11/04 03:27:23;;;;;;;7.28;1.50;;;10.80;99.90;;;;;;4974529;28;20046;-88
2022/11/04 03:30:05;;;;;;;5.82;1.20;;;10.80;99.90;;;;;;4988900;28;20038;-88
2022/11/04 03:33:06;;;;;;;8.23;1.25;;;10.80;99.90;;;;;;4993460;28;20548;-88
2022/11/04 03:35:32;;;;;;;6.13;1.23;;;10.80;99.90;;;;;;4999025;28;20093;-88
2022/11/04 03:37:58;;;;;;;7.82;1.30;;;10.80;99.90;;;;;;4993679;28;21109;-88
2022/11/04 03:40:24;;;;;;;6.95;1.40;;;10.80;99.90;;;;;;4977070;28;20041;-88
2022/11/04 03:43:08;;;;;;;7.30;1.42;;;10.80;99.90;;;;;;4993359;28;20065;-88
2022/11/04 03:45:35;;;;;;;8.23;1.20;;;10.80;99.90;;;;;;4999749;28;20033;-87
2022/11/04 03:48:01;;;;;;;5.10;1.17;;;10.80;99.90;;;;;;4972411;28;20084;-88
2022/11/04 03:50:32;;;;;;;8.73;1.50;;;11.20;99.90;;;;;;4999987;28;20133;-88
2022/11/04 03:52:59;;;;;;;10.13;1.42;;;10.80;99.90;;;;;;5006052;28;20038;-88
2022/11/04 03:55:49;;;;;;;7.40;1.30;;;10.80;99.90;;;;;;4960931;28;20069;-88
2022/11/04 03:58:32;;;;;;;8.48;1.23;;;10.80;99.90;;;;;;4991784;28;20100;-88
2022/11/04 04:01:16;;;;;;;4.75;1.45;;;10.80;99.90;;;;;;4992463;28;20061;-88
2022/11/04 04:03:57;;;;;;;5.85;1.40;;;10.80;99.90;;;;;;5004526;28;20042;-88
2022/11/04 04:06:28;;;;;;;5.15;1.30;;;10.80;99.90;;;;;;4989549;28;20558;-88
2022/11/04 04:09:09;;;;;;;5.53;1.50;;;11.00;99.90;;;;;;4990707;28;20045;-87
2022/11/04 04:12:16;;;;;;;6.53;1.40;;;11.00;99.90;;;;;;4997329;28;20041;-88
2022/11/04 04:14:48;;;;;;;6.32;1.40;;;11.00;99.90;;;;;;4953608;28;20137;-88
2022/11/04 04:17:30;;;;;;;3.50;1.30;;;11.20;99.90;;;;;;4954546;28;20044;-89
2022/11/04 04:20:03;;;;;;;7.07;1.67;;;10.80;99.90;;;;;;4997050;28;20053;-88
2022/11/04 04:22:36;;;;;;;6.88;1.58;;;10.80;99.90;;;;;;5002292;28;20407;-88
2022/11/04 04:27:52;;;;;;;6.93;1.70;;;10.80;99.90;;;;;;5006064;28;20054;-87
2022/11/04 04:30:18;;;;;;;9.50;2.00;;;10.80;99.90;;;;;;4991651;28;20052;-88
2022/11/04 04:32:50;;;;;;;8.57;1.80;;;10.80;99.90;;;;;;5009098;28;20034;-87
2022/11/04 04:46:31;;;;;;;7.68;1.75;;;10.80;99.90;;;;;;4990033;28;20580;-88
2022/11/04 04:49:06;;;;;;;6.50;1.67;;;10.80;99.90;;;;;;4987029;28;20041;-88
2022/11/04 04:51:37;;;;;;;7.25;1.90;;;10.70;99.90;;;;;;4990872;28;20479;-88
2022/11/04 04:54:03;;;;;;;7.32;1.85;;;10.70;99.90;;;;;;4990325;28;20097;-88
2022/11/04 04:56:29;;;;;;;6.50;1.50;;;10.70;99.90;;;;;;4963594;28;20415;-88
2022/11/04 04:58:55;;;;;;;5.10;1.30;;;10.70;99.90;;;;;;4992190;28;20073;-88
2022/11/04 05:01:20;;;;;;;6.90;1.40;;;10.70;99.90;;;;;;4989552;28;20516;-88
2022/11/04 05:03:46;;;;;;;7.35;1.38;;;10.60;99.90;;;;;;4974365;28;20144;-87
2022/11/04 05:06:12;;;;;;;4.03;1.13;;;10.60;99.90;;;;;;4953572;28;20141;-88
2022/11/04 05:08:37;;;;;;;5.10;1.27;;;10.60;99.90;;;;;;4966330;28;20042;-88
2022/11/04 05:11:03;;;;;;;4.78;1.30;;;10.50;99.90;;;;;;4973724;28;20077;-88
2022/11/04 05:13:29;;;;;;;3.58;1.00;;;10.50;99.90;;;;;;4976455;28;20042;-88
2022/11/04 05:15:56;;;;;;;5.03;1.27;;;11.50;99.90;;;;;;4974196;28;20664;-88
2022/11/04 05:18:22;;;;;;;5.65;1.27;;;10.80;99.90;;;;;;5006951;28;20038;-87
2022/11/04 05:20:48;;;;;;;5.65;1.40;;;10.40;99.90;;;;;;4972190;28;20070;-88
2022/11/04 05:23:14;;;;;;;6.28;1.27;;;10.40;99.90;;;;;;4963204;28;20069;-87
2022/11/04 05:25:40;;;;;;;3.92;1.23;;;10.40;99.90;;;;;;4979150;28;20049;-88
2022/11/04 05:28:07;;;;;;;5.43;1.27;;;10.40;99.90;;;;;;4990376;28;20399;-88
2022/11/04 05:30:33;;;;;;;3.83;1.10;;;10.30;99.90;;;;;;4973862;28;20403;-88
2022/11/04 05:32:59;;;;;;;5.80;1.40;;;10.30;99.90;;;;;;4975490;28;20042;-88
2022/11/04 05:35:25;;;;;;;3.60;1.10;;;10.30;99.90;;;;;;4989623;28;20041;-87
2022/11/04 05:37:51;;;;;;;4.65;1.23;;;10.30;99.90;;;;;;4967380;28;20518;-87
2022/11/04 05:40:16;;;;;;;4.85;1.00;;;10.30;99.90;;;;;;4972275;28;20080;-87
2022/11/04 05:42:42;;;;;;;7.10;1.30;;;10.30;99.90;;;;;;4987393;28;20045;-87
2022/11/04 05:45:08;;;;;;;3.97;1.10;;;10.30;99.90;;;;;;4971189;28;20045;-88
2022/11/04 05:47:34;;;;;;;7.85;1.40;;;10.30;99.90;;;;;;4989813;28;20117;-88
2022/11/04 05:50:00;;;;;;;5.30;1.15;;;10.30;99.90;;;;;;4955861;28;20176;-88
2022/11/04 05:52:25;;;;;;;6.10;1.30;;;10.20;99.90;;;;;;4953694;28;20491;-87
2022/11/04 05:54:51;;;;;;;8.70;1.40;;;10.20;99.90;;;;;;4969984;28;20178;-87
2022/11/04 05:57:17;;;;;;;3.70;1.10;;;10.10;99.90;;;;;;4989715;28;20491;-87
2022/11/04 05:59:42;;;;;;;5.38;1.38;;;10.10;99.90;;;;;;4966174;28;20099;-88
2022/11/04 06:02:08;;;;;;;5.32;1.20;;;10.10;99.90;;;;;;4969668;28;20034;-88
2022/11/04 06:04:34;;;;;;;8.73;1.50;;;10.10;99.90;;;;;;4982600;28;20120;-88
2022/11/04 06:07:00;;;;;;;6.78;1.27;;;10.00;99.90;;;;;;4968116;28;20049;-88
2022/11/04 06:09:37;;;;;;;5.60;1.17;;;10.00;99.90;;;;;;4962990;28;20422;-88
2022/11/04 06:12:13;;;;;;;5.55;1.17;;;10.00;99.90;;;;;;4970989;28;20042;-88
2022/11/04 06:14:40;;;;;;;2.88;1.00;;;10.00;99.90;;;;;;5004280;28;20070;-88
2022/11/04 06:17:06;;;;;;;3.63;1.02;;;10.50;99.90;;;;;;4983976;28;20121;-88
2022/11/04 06:19:31;;;;;;;4.43;1.17;;;10.00;99.90;;;;;;4962539;28;20114;-88
2022/11/04 06:21:58;;;;;;;4.60;1.30;;;10.00;99.90;;;;;;5005210;28;20443;-87
2022/11/04 06:24:24;;;;;;;4.00;1.30;;;10.00;99.90;;;;;;4987169;28;20047;-88
2022/11/04 06:26:49;;;;;;;5.57;1.30;;;10.00;99.90;;;;;;4951415;28;20046;-86
2022/11/04 06:29:15;;;;;;;7.82;1.50;;;10.00;99.90;;;;;;4973425;28;20038;-87
2022/11/04 06:31:41;;;;;;;4.18;1.10;;;10.00;99.90;;;;;;4963146;28;20052;-87
2022/11/04 06:34:06;;;;;;;4.35;1.10;;;10.00;99.90;;;;;;4985289;28;20439;-87
2022/11/04 06:36:32;;;;;;;7.95;1.50;;;10.00;99.90;;;;;;4994792;28;20129;-87
2022/11/04 06:38:58;;;;;;;4.13;1.42;;;10.00;99.90;;;;;;4974457;28;20041;-87
2022/11/04 06:41:23;;;;;;;6.00;1.50;;;10.00;99.90;;;;;;4983200;28;20034;-87
2022/11/04 06:43:49;;;;;;;7.72;1.75;;;9.90;99.90;;;;;;4980951;28;20103;-87
2022/11/04 06:46:43;;;;;;;5.18;1.38;;;9.90;99.90;;;;;;4990510;28;20041;-87
2022/11/04 06:49:13;;;;;;;5.57;1.40;;;9.90;99.90;;;;;;5012404;28;20046;-87
2022/11/04 06:51:39;;;;;;;5.22;1.50;;;9.90;99.90;;;;;;4994766;28;20058;-87
2022/11/04 06:54:05;;;;;;;8.05;1.52;;;9.90;99.90;;;;;;4976197;28;20435;-87
2022/11/04 06:56:30;;;;;;;5.88;1.75;;;9.90;99.90;;;;;;5007855;28;20512;-86
2022/11/04 06:58:56;;;;;;;5.05;1.52;;;9.80;99.90;;;;;;4978622;28;20034;-86
2022/11/04 07:01:25;;;;;;;8.35;1.70;;;9.80;99.90;;;;;;5004853;28;20650;-86
2022/11/04 07:03:54;;;;;;;7.40;1.60;;;9.80;99.90;;;;;;5007895;28;20051;-86
2022/11/04 07:06:21;;;;;;;5.97;1.50;;;9.80;99.90;;;;;;4991249;28;20045;-86
2022/11/04 07:08:48;;;;;;;4.88;1.48;;;9.80;99.90;;;;;;4973269;28;20424;-86
2022/11/04 07:11:16;;;;;;;6.15;1.50;;;9.90;99.90;;;;;;4988478;28;20122;-88
2022/11/04 07:13:41;;;;;;;6.03;1.70;;;9.90;99.90;;;;;;4972518;28;20046;-85
2022/11/04 07:16:08;;;;;;;6.65;1.67;;;9.90;99.90;;;;;;4993149;28;20037;-84
2022/11/04 07:18:34;;;;;;;5.60;1.70;;;9.90;99.90;;;;;;4956954;28;20069;-85
2022/11/04 07:21:00;;;;;;;9.10;1.90;;;9.90;99.90;;;;;;5003183;28;20042;-85
2022/11/04 07:23:26;;;;;;;5.93;1.80;;;9.20;99.90;;;;;;4978162;28;20046;-85
2022/11/04 07:25:53;;;;;;;6.82;1.63;;;10.00;99.90;;;;;;5006998;28;20506;-87
2022/11/04 07:28:19;;;;;;;6.93;1.90;;;9.90;99.90;;;;;;4976924;28;20194;-84
2022/11/04 07:30:45;;;;;;;6.43;1.60;;;9.90;99.90;;;;;;4979621;28;20037;-85
2022/11/04 07:33:11;;;;;;;4.00;1.50;;;9.20;99.90;;;;;;5007748;28;20410;-86
2022/11/04 07:35:37;;;;;;;9.38;1.80;;;9.90;99.90;;;;;;4990710;28;20541;-85
2022/11/04 07:38:03;;;;;;;5.38;1.65;;;9.80;99.90;;;;;;4973096;28;20558;-86
2022/11/04 07:40:33;;;;;;;5.22;1.70;;;9.90;99.90;;;;;;4988206;28;20396;-85
2022/11/04 07:42:59;;;;;;;7.70;1.70;;;9.80;99.90;;;;;;5003441;28;20502;-84
2022/11/04 07:45:25;;;;;;;8.27;1.70;;;9.90;99.90;;;;;;4985453;28;20041;-85
2022/11/04 07:47:51;;;;;;;6.32;1.40;;;9.90;99.90;;;;;;4977910;28;20042;-84
2022/11/04 07:50:17;;;;;;;7.30;1.90;;;9.90;99.90;;;;;;4959404;28;20045;-86
2022/11/04 07:52:43;;;;;;;5.28;1.65;;;9.90;99.90;;;;;;4978255;28;20121;-85
2022/11/04 07:55:09;;;;;;;6.07;1.73;;;10.00;99.90;;;;;;4974648;28;20074;-87
2022/11/04 07:57:35;;;;;;;8.70;2.00;;;10.00;99.90;;;;;;4992222;28;20042;-85
2022/11/04 08:00:04;;;;;;;4.70;1.70;;;10.00;99.90;;;;;;4984751;28;20042;-86
2022/11/04 08:02:30;;;;;;;6.18;1.88;;;10.00;99.90;;;;;;4977881;28;20491;-85
2022/11/04 08:04:56;;;;;;;7.32;1.58;;;10.10;99.90;;;;;;4977292;28;20096;-88
2022/11/04 08:07:22;;;;;;;5.07;1.67;;;10.10;99.90;;;;;;4974718;28;20044;-85
2022/11/04 08:09:48;;;;;;;4.80;1.67;;;10.30;99.90;;;;;;4973939;28;20043;-85
2022/11/04 08:12:13;;;;;;;6.60;1.60;;;10.20;99.90;;;;;;4952994;28;20045;-85
2022/11/04 08:14:39;;;;;;;7.35;1.80;;;10.20;99.90;;;;;;4987334;28;20041;-88
2022/11/04 08:17:05;;;;;;;5.95;1.80;;;10.20;99.90;;;;;;4958187;28;20043;-88
2022/11/04 08:19:30;;;;;;;7.78;1.88;;;10.30;99.90;;;;;;4965867;28;20039;-87
2022/11/04 08:21:56;;;;;;;5.80;1.90;;;11.50;99.90;;;;;;4990415;28;20075;-88
2022/11/04 08:24:22;;;;;;;6.93;1.90;;;10.40;99.90;;;;;;4993691;28;20041;-85
2022/11/04 08:26:48;;;;;;;5.55;1.50;;;;;;;;;;4993567;28;20038;-85
2022/11/04 08:29:14;;;;;;;4.80;1.73;;;10.50;99.90;;;;;;5005470;28;20038;-85
2022/11/04 08:31:40;;;;;;;6.90;1.70;;;10.60;99.90;;;;;;4971543;28;20046;-86
2022/11/04 08:34:07;;;;;;;7.88;1.85;;;10.60;99.90;;;;;;4967507;28;20038;-85
2022/11/04 08:36:35;;;;;;;6.40;1.98;;;10.90;99.90;;;;;;4972014;28;20049;-85
2022/11/04 08:39:03;;;;;;;5.85;1.70;;;10.70;99.90;;;;;;4988471;28;20081;-87
2022/11/04 08:41:30;;;;;;;10.10;1.92;;;10.80;99.90;;;;;;4990299;28;20038;-85
2022/11/04 08:43:59;;;;;;;4.80;1.60;;;10.70;99.90;;;;;;4978360;28;20042;-86
2022/11/04 08:46:28;;;;;;;6.70;1.85;;;10.80;99.90;;;;;;4964484;28;20466;-86
2022/11/04 08:48:53;;;;;;;6.68;1.67;;;10.80;99.90;;;;;;4985455;28;20124;-86
2022/11/04 08:51:22;;;;;;;8.07;1.70;;;11.00;99.90;;;;;;4953718;28;20105;-87
2022/11/04 08:53:48;;;;;;;8.35;1.75;;;10.90;99.90;;;;;;4985117;28;20513;-86
2022/11/04 08:56:23;;;;;;;5.85;1.52;;;10.90;99.90;;;;;;4988952;28;20044;-86
2022/11/04 08:58:49;;;;;;;5.22;1.60;;;11.00;99.90;;;;;;4990040;28;20065;-87
2022/11/04 09:01:17;;;;;;;4.80;1.55;;;11.00;99.90;;;;;;4968854;28;20042;-87
2022/11/04 09:03:43;;;;;;;6.93;1.50;;;11.10;99.90;;;;;;5001705;28;20559;-88
2022/11/04 09:06:12;;;;;;;7.25;1.73;;;11.10;99.90;;;;;;4971234;28;20050;-90
2022/11/04 09:08:38;;;;;;;8.93;2.10;;;11.10;99.90;;;;;;4991089;28;20482;-91
2022/11/04 09:11:09;;;;;;;6.63;1.83;;;11.20;99.90;;;;;;4987768;28;20029;-85
2022/11/04 09:13:35;;;;;;;6.75;1.90;;;11.20;99.90;;;;;;5002196;28;20038;-87
2022/11/04 09:16:01;;;;;;;5.03;1.50;;;11.30;99.90;;;;;;4968283;28;20041;-87
2022/11/04 09:18:28;;;;;;;6.68;1.60;;;11.30;99.90;;;;;;5007024;28;20040;-87
2022/11/04 09:20:54;;;;;;;7.35;1.70;;;11.40;99.90;;;;;;4986673;28;21473;-88
2022/11/04 09:23:20;;;;;;;4.78;1.50;;;11.40;99.90;;;;;;4988019;28;20042;-86
2022/11/04 09:25:45;;;;;;;8.00;2.03;;;11.40;99.90;;;;;;4972311;28;20044;-88
2022/11/04 09:28:11;;;;;;;5.88;1.60;;;11.50;99.90;;;;;;4973808;28;20403;-86
2022/11/04 09:30:37;;;;;;;9.45;2.05;;;11.50;99.90;;;;;;4960990;28;20188;-86
2022/11/04 09:33:03;;;;;;;7.85;1.98;;;11.70;99.90;;;;;;5008370;28;20033;-87
2022/11/04 09:35:29;;;;;;;7.35;1.85;;;11.60;99.90;;;;;;4994881;28;20407;-87
2022/11/04 09:37:55;;;;;;;9.75;1.98;;;11.70;99.90;;;;;;4990709;28;20041;-86
2022/11/04 09:40:23;;;;;;;5.65;1.50;;;12.10;99.90;;;;;;5004497;28;20473;-86
2022/11/04 09:43:29;;;;;;;6.80;1.58;;;11.70;99.90;;;;;;4987181;28;20038;-85
2022/11/04 09:45:56;;;;;;;8.07;1.60;;;11.80;99.90;;;;;;4984693;28;20046;-87
2022/11/04 09:48:40;;;;;;;8.40;1.90;;;11.90;99.90;;;;;;4998981;28;20517;-85
2022/11/04 09:51:06;;;;;;;7.28;1.50;;;11.90;99.90;;;;;;5003393;28;20089;-86
2022/11/04 09:53:47;;;;;;;7.22;1.80;;;12.20;99.90;;;;;;4988625;28;20326;-86
2022/11/04 09:56:24;;;;;;;5.40;1.40;;;12.10;99.90;;;;;;4989305;28;20177;-86
2022/11/04 09:58:50;;;;;;;4.45;1.50;;;12.10;99.90;;;;;;5004918;28;20520;-86
2022/11/04 10:01:28;;;;;;;6.25;1.58;;;12.50;99.90;;;;;;4982985;28;20042;-85
2022/11/04 10:04:44;;;;;;;7.03;1.60;;;12.30;99.90;;;;;;4987978;28;20053;-85
2022/11/04 10:07:37;;;;;;;5.13;1.33;;;12.40;99.90;;;;;;4956876;28;20520;-88
2022/11/04 10:10:23;;;;;;;7.18;1.40;;;12.60;99.90;;;;;;4949596;28;20051;-85
2022/11/04 10:13:10;;;;;;;6.38;1.67;;;12.60;99.90;;;;;;4976122;28;20050;-87
2022/11/04 10:16:13;;;;;;;6.65;1.60;;;12.70;99.90;;;;;;4983052;28;20070;-86
2022/11/04 10:18:52;;;;;;;5.55;1.50;;;12.80;99.90;;;;;;5007083;28;20052;-86
2022/11/04 10:22:02;;;;;;;8.27;1.83;;;12.90;99.90;;;;;;5011647;28;20033;-87
2022/11/04 10:24:34;;;;;;;6.75;1.58;;;13.00;99.90;;;;;;4977646;28;20054;-85
2022/11/04 10:27:03;;;;;;;8.82;1.88;;;12.90;99.90;;;;;;4991481;28;20068;-86
2022/11/04 10:29:41;;;;;;;8.85;1.83;;;13.10;99.90;;;;;;4983706;28;20700;-86
2022/11/04 10:32:36;;;;;;;7.00;1.70;;;13.00;99.90;;;;;;4992452;28;20034;-87
2022/11/04 10:35:20;;;;;;;8.32;1.60;;;13.00;99.90;;;;;;4978906;28;20049;-86
2022/11/04 10:37:50;;;;;;;8.48;1.50;;;13.10;99.90;;;;;;4985717;28;20034;-85
2022/11/04 10:40:24;;;;;;;8.20;1.50;;;13.20;99.90;;;;;;4987079;28;20503;-87
2022/11/04 10:42:52;;;;;;;7.38;1.88;;;13.20;99.90;;;;;;5000900;28;20116;-86
2022/11/04 10:45:21;;;;;;;6.40;1.73;;;13.20;99.90;;;;;;4975910;28;20487;-86
2022/11/04 10:48:19;;;;;;;7.60;1.48;;;13.20;99.90;;;;;;4996044;28;20037;-86
2022/11/04 10:50:53;;;;;;;7.25;1.70;;;13.20;99.90;;;;;;5003681;28;20053;-85
2022/11/04 10:53:24;;;;;;;7.70;1.63;;;13.30;99.90;;;;;;5009909;28;20515;-86
2022/11/04 10:55:59;;;;;;;16.17;2.05;;;13.10;99.90;;;;;;4987469;28;20034;-85
2022/11/04 10:58:28;;;;;;;8.55;1.60;;;13.00;99.90;;;;;;4994042;28;20471;-86
2022/11/04 11:00:54;;;;;;;7.88;1.55;;;13.00;99.90;;;;;;4994946;28;20049;-86
2022/11/04 11:03:33;;;;;;;7.07;1.50;;;12.90;99.90;;;;;;4975527;28;20049;-86
2022/11/04 11:06:18;;;;;;;7.05;1.67;;;13.00;99.90;;;;;;5004364;28;20099;-85
2022/11/04 11:08:45;;;;;;;8.88;1.80;;;12.90;99.90;;;;;;4993077;28;20042;-86
2022/11/04 11:11:13;;;;;;;10.55;2.15;;;12.90;99.90;;;;;;5010872;28;20046;-85
2022/11/04 11:13:43;;;;;;;9.40;1.60;;;13.10;99.90;;;;;;4994900;28;20519;-85
2022/11/04 11:16:19;;;;;;;7.60;1.80;;;13.30;99.90;;;;;;4994527;28;20072;-85
2022/11/04 11:18:54;;;;;;;9.25;1.77;;;13.30;99.90;;;;;;5009926;28;20069;-86
2022/11/04 11:21:22;;;;;;;6.90;1.45;;;13.30;99.90;;;;;;5013318;28;20041;-86
2022/11/04 11:23:50;;;;;;;9.93;1.80;;;13.20;99.90;;;;;;4994371;28;20050;-86
2022/11/04 11:26:17;;;;;;;9.38;1.80;;;13.20;99.90;;;;;;5005623;28;20041;-86
2022/11/04 11:28:49;;;;;;;10.45;2.17;;;13.10;99.90;;;;;;5003246;28;20046;-86
2022/11/04 11:31:22;;;;;;;7.17;1.80;;;13.10;99.90;;;;;;4993135;28;20048;-87
2022/11/04 11:33:56;;;;;;;10.85;2.33;;;13.00;99.90;;;;;;4991368;28;20034;-87
2022/11/04 11:36:38;;;;;;;9.25;1.60;;;13.00;99.90;;;;;;4979434;28;20394;-86
2022/11/04 11:39:17;;;;;;;8.32;1.90;;;13.00;99.90;;;;;;4982950;28;20073;-85
2022/11/04 11:42:05;;;;;;;9.57;2.30;;;13.00;99.90;;;;;;4980847;28;20078;-86
2022/11/04 11:44:46;;;;;;;9.02;1.70;;;13.00;99.90;;;;;;5001875;28;20041;-86
2022/11/04 11:47:36;;;;;;;9.10;1.70;;;13.10;99.90;;;;;;4966899;28;20038;-86
2022/11/04 11:50:23;;;;;;;9.70;1.73;;;13.30;99.90;;;;;;4988355;28;20046;-87
2022/11/04 11:52:51;;;;;;;8.77;1.95;;;13.30;99.90;;;;;;4992953;28;20050;-87
2022/11/04 11:55:37;;;;;;;7.38;1.70;;;13.20;99.90;;;;;;4978294;28;20037;-86
2022/11/04 11:58:34;;;;;;;9.30;1.63;;;13.10;99.90;;;;;;4980541;28;20049;-87
2022/11/04 12:01:23;;;;;;;10.05;2.10;;;13.00;99.90;;;;;;5001568;28;20395;-86
2022/11/04 12:03:49;;;;;;;6.43;1.35;;;12.70;99.90;;;;;;4998818;28;20038;-85
2022/11/04 12:06:33;;;;;;;8.90;1.60;;;12.40;99.90;;;;;;5008833;28;20167;-86
2022/11/04 12:09:12;;;;;;;7.30;1.67;;;12.10;99.90;;;;;;4993590;28;20059;-86
2022/11/04 12:12:06;;;;;;;6.97;1.50;;;11.90;99.90;;;;;;4991458;28;20112;-86
2022/11/04 12:15:13;;;;;;;4.72;1.35;;;11.60;99.90;;;;;;5005431;28;20118;-87
2022/11/04 12:18:18;;;;;;;6.70;1.58;;;11.40;99.90;;;;;;4992194;28;20077;-87
2022/11/04 12:21:10;;;;;;;5.32;1.20;;;11.40;99.90;;;;;;4967572;28;20074;-86
2022/11/04 12:23:41;;;;;;;11.05;1.73;;;11.40;99.90;;;;;;4995982;28;20097;-87
2022/11/04 12:26:25;;;;;;;8.57;1.80;;;11.40;99.90;;;;;;4991933;28;20041;-85
2022/11/04 12:29:30;;;;;;;6.47;1.40;;;11.40;99.90;;;;;;4992341;28;20045;-89
2022/11/04 12:32:57;;;;;;;6.88;1.50;;;11.50;99.90;;;;;;4992248;28;20073;-86
2022/11/04 12:35:42;;;;;;;6.35;1.48;;;11.50;99.90;;;;;;4931718;28;20133;-87
2022/11/04 12:38:52;;;;;;;6.03;1.58;;;11.60;99.90;;;;;;4984865;28;20049;-87
2022/11/04 12:41:17;;;;;;;7.07;1.63;;;11.70;99.90;;;;;;4981090;28;20077;-87
2022/11/04 12:43:54;;;;;;;7.93;1.88;;;11.80;99.90;;;;;;4989480;28;20080;-86
2022/11/04 12:46:35;;;;;;;7.35;1.85;;;11.80;99.90;;;;;;4989189;28;20392;-87
2022/11/04 12:49:20;;;;;;;7.15;1.60;;;11.80;99.90;;;;;;4985511;28;20046;-89
2022/11/04 12:52:10;;;;;;;6.03;1.50;;;11.80;99.90;;;;;;4991344;28;20145;-87
2022/11/04 12:54:54;;;;;;;7.40;1.75;;;11.90;99.90;;;;;;4988054;28;20052;-86
2022/11/04 12:57:50;;;;;;;6.82;1.42;;;11.90;99.90;;;;;;4988419;28;20112;-86
2022/11/04 13:00:23;;;;;;;5.88;1.40;;;12.00;99.90;;;;;;5009498;28;20034;-88
2022/11/04 13:02:55;;;;;;;4.90;1.48;;;12.00;99.90;;;;;;4992789;28;20073;-86
2022/11/04 13:05:27;;;;;;;6.72;1.50;;;12.00;99.90;;;;;;4981964;28;20360;-86
2022/11/04 13:08:20;;;;;;;9.82;1.95;;;12.00;99.90;;;;;;4980903;28;20042;-86
2022/11/04 13:11:00;;;;;;;8.65;1.75;;;12.00;99.90;;;;;;4983940;28;20062;-85
2022/11/04 13:13:35;;;;;;;7.28;1.60;;;12.00;99.90;;;;;;4997456;28;20030;-85
2022/11/04 13:16:08;;;;;;;8.35;1.88;;;12.00;99.90;;;;;;4990519;28;20045;-85
2022/11/04 13:18:38;;;;;;;7.82;1.83;;;12.00;99.90;;;;;;4981919;28;20092;-84
2022/11/04 13:21:15;;;;;;;9.77;2.30;;;12.10;99.90;;;;;;4997606;28;20045;-87
2022/11/04 13:23:56;;;;;;;9.32;2.10;;;12.20;99.90;;;;;;4987031;28;20099;-86
2022/11/04 13:26:23;;;;;;;10.15;1.80;;;12.30;99.90;;;;;;4990736;28;20516;-86
2022/11/04 13:28:58;;;;;;;8.02;1.70;;;12.40;99.90;;;;;;4972171;28;20046;-85
2022/11/04 13:31:53;;;;;;;6.90;1.67;;;12.40;99.90;;;;;;4990107;28;20050;-85
2022/11/04 13:34:36;;;;;;;10.70;1.80;;;12.50;99.90;;;;;;5005682;28;20104;-85
2022/11/04 13:37:13;;;;;;;11.00;1.75;;;12.60;99.90;;;;;;4988205;28;20070;-86
2022/11/04 13:39:52;;;;;;;9.73;1.77;;;12.70;99.90;;;;;;4983108;28;20104;-85
2022/11/04 13:42:46;;;;;;;10.25;1.85;;;12.80;99.90;;;;;;4985049;28;20038;-86
2022/11/04 13:45:15;;;;;;;9.57;1.73;;;12.90;99.90;;;;;;4981767;28;20498;-86
2022/11/04 13:47:52;;;;;;;9.02;1.77;;;13.00;99.90;;;;;;4991969;28;20048;-85